createdAt,value
2019-04-16T00:02:11.824Z,9.80
2019-04-16T00:04:53.722Z,9.70
2019-04-16T00:07:35.259Z,9.70
2019-04-16T00:10:09.324Z,9.70
2019-04-16T00:12:56.490Z,9.70
2019-04-16T00:15:27.329Z,9.70
2019-04-16T00:17:57.603Z,9.70
2019-04-16T00:20:27.908Z,9.60
2019-04-16T00:23:02.377Z,9.60
2019-04-16T00:25:32.671Z,9.60
2019-04-16T00:28:03.262Z,9.60
2019-04-16T00:30:35.664Z,9.60
2019-04-16T00:33:07.590Z,9.40
2019-04-16T00:35:38.189Z,9.40
2019-04-16T00:38:08.489Z,9.40
2019-04-16T00:40:38.770Z,9.50
2019-04-16T00:43:09.076Z,9.40
2019-04-16T00:45:39.358Z,9.40
2019-04-16T00:48:09.919Z,9.40
2019-04-16T00:50:40.199Z,9.40
2019-04-16T00:53:10.874Z,9.40
2019-04-16T00:55:42.283Z,9.30
2019-04-16T00:58:13.473Z,9.30
2019-04-16T01:00:43.752Z,9.20
2019-04-16T01:03:14.038Z,9.30
2019-04-16T01:05:44.645Z,9.30
2019-04-16T01:08:14.922Z,9.20
2019-04-16T01:10:45.947Z,9.20
2019-04-16T01:13:16.227Z,9.30
2019-04-16T01:15:46.585Z,9.20
2019-04-16T01:18:16.874Z,9.20
2019-04-16T01:20:47.155Z,9.20
2019-04-16T01:23:18.392Z,9.20
2019-04-16T01:25:48.713Z,9.20
2019-04-16T01:28:23.927Z,9.20
2019-04-16T01:31:08.148Z,9.20
2019-04-16T01:33:38.511Z,9.10
2019-04-16T01:36:26.600Z,9.10
2019-04-16T01:39:14.735Z,9.00
2019-04-16T01:41:30.868Z,9.00
2019-04-16T01:44:01.151Z,9.00
2019-04-16T01:46:32.890Z,9.00
2019-04-16T01:49:03.450Z,8.90
2019-04-16T01:51:33.744Z,8.90
2019-04-16T01:54:04.033Z,8.90
2019-04-16T01:56:34.558Z,8.90
2019-04-16T01:59:06.125Z,8.90
2019-04-16T02:01:36.842Z,8.80
2019-04-16T02:04:07.237Z,8.80
2019-04-16T02:06:37.476Z,8.80
2019-04-16T02:09:16.057Z,8.90
2019-04-16T02:11:41.482Z,8.80
2019-04-16T02:14:14.512Z,8.80
2019-04-16T02:16:44.501Z,8.80
2019-04-16T02:19:15.558Z,8.80
2019-04-16T02:21:45.842Z,8.80
2019-04-16T02:24:18.697Z,8.70
2019-04-16T02:26:48.220Z,8.80
2019-04-16T02:29:18.488Z,8.70
2019-04-16T02:31:51.510Z,8.70
2019-04-16T02:34:20.826Z,8.60
2019-04-16T02:36:51.421Z,8.60
2019-04-16T02:39:25.746Z,8.60
2019-04-16T02:41:58.275Z,8.60
2019-04-16T02:44:26.189Z,8.60
2019-04-16T02:46:56.454Z,8.50
2019-04-16T02:49:26.736Z,8.50
2019-04-16T02:52:01.470Z,8.50
2019-04-16T02:54:39.000Z,8.40
2019-04-16T02:57:26.686Z,8.40
2019-04-16T02:59:55.912Z,8.40
2019-04-16T03:02:44.124Z,8.40
2019-04-16T03:05:16.037Z,8.40
2019-04-16T03:07:46.315Z,8.30
2019-04-16T03:10:16.580Z,8.30
2019-04-16T03:12:51.868Z,8.30
2019-04-16T03:15:20.774Z,8.30
2019-04-16T03:17:51.049Z,8.30
2019-04-16T03:20:24.013Z,8.20
2019-04-16T03:22:53.284Z,8.20
2019-04-16T03:25:23.552Z,8.30
2019-04-16T03:27:54.486Z,8.30
2019-04-16T03:30:25.266Z,8.20
2019-04-16T03:32:55.559Z,8.20
2019-04-16T03:35:26.841Z,8.20
2019-04-16T03:37:57.475Z,8.20
2019-04-16T03:40:27.734Z,8.20
2019-04-16T03:42:59.272Z,8.20
2019-04-16T03:45:30.401Z,8.20
2019-04-16T03:48:00.671Z,8.20
2019-04-16T03:50:32.122Z,8.20
2019-04-16T03:53:02.427Z,8.10
2019-04-16T03:55:32.709Z,8.10
2019-04-16T03:58:06.267Z,8.00
2019-04-16T04:00:35.207Z,8.10
2019-04-16T04:03:05.471Z,8.10
2019-04-16T04:05:36.060Z,8.10
2019-04-16T04:08:06.328Z,8.10
2019-04-16T04:10:37.771Z,8.00
2019-04-16T04:13:08.254Z,8.00
2019-04-16T04:15:38.541Z,8.00
2019-04-16T04:18:11.645Z,8.00
2019-04-16T04:20:41.081Z,7.90
2019-04-16T04:23:11.429Z,7.90
2019-04-16T04:25:42.064Z,7.90
2019-04-16T04:28:12.331Z,7.90
2019-04-16T04:30:42.997Z,7.90
2019-04-16T04:33:15.120Z,7.80
2019-04-16T04:35:45.319Z,7.80
2019-04-16T04:38:16.175Z,7.80
2019-04-16T04:40:50.291Z,7.90
2019-04-16T04:43:18.407Z,7.90
2019-04-16T04:45:48.674Z,7.90
2019-04-16T04:48:23.003Z,7.80
2019-04-16T04:50:51.288Z,7.80
2019-04-16T04:53:21.553Z,7.90
2019-04-16T04:55:54.464Z,7.90
2019-04-16T04:58:24.144Z,7.80
2019-04-16T05:00:54.421Z,7.80
2019-04-16T05:03:32.063Z,7.80
2019-04-16T05:06:07.160Z,7.80
2019-04-16T05:08:37.727Z,7.80
2019-04-16T05:11:08.000Z,7.80
2019-04-16T05:13:38.275Z,7.80
2019-04-16T05:16:08.553Z,7.80
2019-04-16T05:18:41.898Z,7.90
2019-04-16T05:21:10.787Z,7.90
2019-04-16T05:23:41.085Z,7.90
2019-04-16T05:26:11.635Z,7.90
2019-04-16T05:28:45.424Z,7.90
2019-04-16T05:31:13.883Z,8.10
2019-04-16T05:33:44.179Z,8.10
2019-04-16T05:36:15.431Z,8.00
2019-04-16T05:38:45.925Z,8.00
2019-04-16T05:41:20.378Z,8.00
2019-04-16T05:43:48.180Z,8.00
2019-04-16T05:46:18.449Z,8.10
2019-04-16T05:48:51.382Z,8.10
2019-04-16T05:51:20.934Z,8.10
2019-04-16T05:53:52.846Z,8.20
2019-04-16T05:56:24.956Z,8.30
2019-04-16T05:58:55.519Z,8.40
2019-04-16T06:01:33.222Z,8.50
2019-04-16T06:04:03.812Z,8.60
2019-04-16T06:06:34.106Z,8.70
2019-04-16T06:09:11.882Z,8.80
2019-04-16T06:11:39.516Z,8.90
2019-04-16T06:14:30.463Z,9.00
2019-04-16T06:17:05.092Z,9.00
2019-04-16T06:19:46.783Z,9.10
2019-04-16T06:22:37.462Z,9.20
2019-04-16T06:25:25.381Z,9.30
2019-04-16T06:28:09.478Z,9.40
2019-04-16T06:30:43.992Z,9.40
2019-04-16T06:33:19.001Z,9.50
2019-04-16T06:35:54.006Z,9.50
2019-04-16T06:38:26.134Z,9.60
2019-04-16T06:41:03.087Z,9.70
2019-04-16T06:43:48.151Z,9.80
2019-04-16T06:46:20.065Z,9.90
2019-04-16T06:48:52.010Z,10.00
2019-04-16T06:51:43.819Z,10.00
2019-04-16T06:54:25.398Z,10.10
2019-04-16T06:57:02.639Z,10.20
2019-04-16T06:59:34.554Z,10.20
2019-04-16T07:02:15.763Z,10.20
2019-04-16T07:04:47.687Z,10.30
2019-04-16T07:07:40.156Z,10.40
2019-04-16T07:10:14.607Z,10.50
2019-04-16T07:12:49.423Z,10.60
2019-04-16T07:15:24.392Z,10.70
2019-04-16T07:17:51.846Z,10.70
2019-04-16T07:20:22.373Z,10.80
2019-04-16T07:22:53.555Z,10.80
2019-04-16T07:25:27.422Z,10.90
2019-04-16T07:27:58.599Z,11.00
2019-04-16T07:30:38.661Z,11.10
2019-04-16T07:33:07.190Z,11.20
2019-04-16T07:35:48.236Z,11.30
2019-04-16T07:38:23.058Z,11.40
2019-04-16T07:41:00.886Z,11.50
2019-04-16T07:43:38.558Z,11.60
2019-04-16T07:46:28.767Z,11.70
2019-04-16T07:49:00.705Z,11.80
2019-04-16T07:51:35.789Z,11.80
2019-04-16T07:54:09.339Z,11.80
2019-04-16T07:56:41.928Z,11.80
2019-04-16T07:59:12.434Z,11.90
2019-04-16T08:01:44.008Z,12.00
2019-04-16T08:04:23.207Z,12.00
2019-04-16T08:06:47.406Z,11.90
2019-04-16T08:09:17.715Z,11.90
2019-04-16T08:11:48.049Z,12.00
2019-04-16T08:14:18.896Z,12.00
2019-04-16T08:16:49.203Z,12.00
2019-04-16T08:19:19.488Z,12.00
2019-04-16T08:21:49.813Z,12.30
2019-04-16T08:24:27.450Z,12.40
2019-04-16T08:26:57.949Z,12.40
2019-04-16T08:29:28.231Z,12.40
2019-04-16T08:31:58.544Z,12.50
2019-04-16T08:34:28.852Z,12.70
2019-04-16T08:36:59.140Z,12.80
2019-04-16T08:39:29.423Z,12.90
2019-04-16T08:41:59.976Z,13.10
2019-04-16T08:44:35.317Z,13.10
2019-04-16T08:47:02.513Z,13.20
2019-04-16T08:49:32.795Z,13.30
2019-04-16T08:52:03.093Z,13.40
2019-04-16T08:54:33.382Z,13.60
2019-04-16T08:57:03.990Z,13.50
2019-04-16T08:59:35.403Z,13.80
2019-04-16T09:02:05.706Z,13.80
2019-04-16T09:04:36.003Z,13.90
2019-04-16T09:07:11.968Z,14.10
2019-04-16T09:09:40.212Z,14.20
2019-04-16T09:12:10.505Z,14.30
2019-04-16T09:14:42.708Z,14.30
2019-04-16T09:17:14.651Z,14.20
2019-04-16T09:19:46.575Z,14.50
2019-04-16T09:22:17.204Z,14.70
2019-04-16T09:24:52.399Z,14.90
2019-04-16T09:27:28.546Z,15.10
2019-04-16T09:30:09.870Z,15.20
2019-04-16T09:32:40.682Z,15.40
2019-04-16T09:35:24.624Z,15.50
2019-04-16T09:37:56.789Z,15.70
2019-04-16T09:40:31.401Z,15.80
2019-04-16T09:43:16.146Z,15.90
2019-04-16T09:45:37.188Z,16.10
2019-04-16T09:48:07.615Z,16.30
2019-04-16T09:50:43.100Z,16.40
2019-04-16T09:53:09.881Z,16.60
2019-04-16T09:55:40.170Z,16.80
2019-04-16T09:58:12.106Z,17.00
2019-04-16T10:00:47.005Z,17.10
2019-04-16T10:03:17.251Z,17.40
2019-04-16T10:05:47.396Z,17.50
2019-04-16T10:08:17.687Z,17.40
2019-04-16T10:10:48.015Z,17.30
2019-04-16T10:13:29.996Z,17.50
2019-04-16T10:15:50.315Z,17.60
2019-04-16T10:18:20.826Z,17.70
2019-04-16T10:20:51.081Z,18.00
2019-04-16T10:23:32.243Z,18.10
2019-04-16T10:26:02.892Z,18.10
2019-04-16T10:28:43.868Z,18.30
2019-04-16T10:31:15.780Z,18.40
2019-04-16T10:33:46.082Z,18.40
2019-04-16T10:36:16.345Z,18.40
2019-04-16T10:39:04.639Z,18.50
2019-04-16T10:41:56.388Z,18.60
2019-04-16T10:44:29.038Z,18.50
2019-04-16T10:47:03.927Z,18.60
2019-04-16T10:49:44.809Z,19.00
2019-04-16T10:52:32.857Z,19.40
2019-04-16T10:55:20.966Z,19.60
2019-04-16T10:57:55.404Z,19.70
2019-04-16T11:00:29.988Z,19.90
2019-04-16T11:03:11.126Z,20.00
2019-04-16T11:05:43.279Z,20.20
2019-04-16T11:08:13.609Z,20.40
2019-04-16T11:10:43.998Z,20.60
2019-04-16T11:13:27.919Z,20.70
2019-04-16T11:15:59.860Z,20.80
2019-04-16T11:18:30.143Z,20.80
2019-04-16T11:21:00.945Z,21.20
2019-04-16T11:23:31.215Z,21.50
2019-04-16T11:26:01.487Z,21.70
2019-04-16T11:28:31.791Z,21.80
2019-04-16T11:31:03.706Z,21.90
2019-04-16T11:33:33.998Z,21.90
2019-04-16T11:36:17.759Z,21.90
2019-04-16T11:38:36.571Z,21.80
2019-04-16T11:41:06.972Z,21.60
2019-04-16T11:43:37.604Z,21.50
2019-04-16T11:46:07.974Z,21.30
2019-04-16T11:48:38.402Z,21.30
2019-04-16T11:51:08.708Z,21.40
2019-04-16T11:53:38.987Z,21.90
2019-04-16T11:56:09.242Z,22.20
2019-04-16T11:58:41.865Z,22.60
2019-04-16T12:01:13.834Z,22.60
2019-04-16T12:04:03.252Z,22.80
2019-04-16T12:09:34.681Z,22.80
2019-04-16T12:12:15.819Z,22.90
2019-04-16T12:15:00.000Z,22.80
2019-04-16T12:17:47.849Z,23.00
2019-04-16T12:20:22.707Z,23.10
2019-04-16T12:23:06.669Z,24.10
2019-04-16T12:25:38.586Z,24.70
2019-04-16T12:28:25.792Z,24.80
2019-04-16T12:31:16.846Z,24.60
2019-04-16T12:33:51.875Z,24.20
2019-04-16T12:36:40.531Z,24.30
2019-04-16T12:39:21.146Z,23.50
2019-04-16T12:42:00.167Z,23.20
2019-04-16T12:44:45.706Z,22.90
2019-04-16T12:47:15.335Z,22.40
2019-04-16T12:49:47.619Z,22.70
2019-04-16T12:52:25.251Z,22.80
2019-04-16T12:54:59.344Z,23.00
2019-04-16T12:57:33.787Z,22.70
2019-04-16T13:00:10.893Z,22.70
2019-04-16T13:02:52.072Z,22.90
2019-04-16T13:05:39.493Z,22.60
2019-04-16T13:08:17.227Z,22.90
2019-04-16T13:11:00.956Z,22.60
2019-04-16T13:13:49.397Z,22.50
2019-04-16T13:16:27.311Z,22.40
2019-04-16T13:19:08.162Z,22.40
2019-04-16T13:21:40.119Z,22.40
2019-04-16T13:24:12.028Z,22.80
2019-04-16T13:26:43.958Z,22.60
2019-04-16T13:29:17.258Z,22.60
2019-04-16T13:31:47.794Z,22.30
2019-04-16T13:34:19.347Z,21.90
2019-04-16T13:36:51.605Z,21.80
2019-04-16T13:39:26.160Z,21.80
2019-04-16T13:41:56.742Z,21.70
2019-04-16T13:44:40.382Z,21.60
2019-04-16T13:47:09.723Z,21.10
2019-04-16T13:49:44.605Z,21.20
2019-04-16T13:52:17.084Z,21.50
2019-04-16T13:54:55.324Z,21.70
2019-04-16T13:57:30.041Z,21.50
2019-04-16T14:00:05.656Z,21.50
2019-04-16T14:02:47.720Z,21.30
2019-04-16T14:05:19.252Z,21.60
2019-04-16T14:07:49.609Z,21.60
2019-04-16T14:10:19.968Z,21.50
2019-04-16T14:12:50.243Z,21.40
2019-04-16T14:15:31.789Z,21.30
2019-04-16T14:17:59.064Z,21.30
2019-04-16T14:20:26.376Z,21.10
2019-04-16T14:22:56.669Z,21.00
2019-04-16T14:25:26.941Z,20.90
2019-04-16T14:28:02.070Z,20.60
2019-04-16T14:30:31.173Z,20.40
2019-04-16T14:33:01.458Z,20.30
2019-04-16T14:35:34.043Z,20.20
2019-04-16T14:38:04.479Z,19.90
2019-04-16T14:40:34.839Z,19.80
2019-04-16T14:43:05.200Z,19.70
2019-04-16T14:45:57.711Z,19.80
2019-04-16T14:48:16.043Z,19.80
2019-04-16T14:50:46.323Z,20.10
2019-04-16T14:53:18.253Z,20.40
2019-04-16T14:55:59.833Z,20.40
2019-04-16T14:58:26.423Z,20.60
2019-04-16T15:01:13.791Z,20.90
2019-04-16T15:04:00.748Z,20.90
2019-04-16T15:06:44.473Z,21.20
2019-04-16T15:09:32.670Z,21.30
2019-04-16T15:12:08.492Z,21.30
2019-04-16T15:14:40.690Z,21.50
2019-04-16T15:17:19.176Z,21.60
2019-04-16T15:19:53.763Z,21.50
2019-04-16T15:22:43.358Z,21.50
2019-04-16T15:25:15.280Z,21.40
2019-04-16T15:27:49.899Z,21.50
2019-04-16T15:30:38.032Z,21.30
2019-04-16T15:33:24.901Z,21.20
2019-04-16T15:36:08.989Z,20.70
2019-04-16T15:38:40.911Z,20.60
2019-04-16T15:41:27.933Z,20.50
2019-04-16T15:44:16.072Z,20.20
2019-04-16T15:46:48.455Z,20.00
2019-04-16T15:49:24.136Z,19.90
2019-04-16T15:51:58.899Z,19.80
2019-04-16T15:54:33.663Z,19.70
2019-04-16T15:57:17.751Z,19.80
2019-04-16T16:00:07.839Z,20.00
2019-04-16T16:02:45.599Z,20.00
2019-04-16T16:05:27.291Z,19.80
2019-04-16T16:08:15.358Z,19.80
2019-04-16T16:10:53.479Z,19.80
2019-04-16T16:13:26.532Z,19.70
2019-04-16T16:15:55.928Z,19.70
2019-04-16T16:18:26.778Z,19.60
2019-04-16T16:20:57.215Z,19.50
2019-04-16T16:23:32.748Z,19.40
2019-04-16T16:25:59.419Z,19.30
2019-04-16T16:28:29.789Z,19.30
2019-04-16T16:31:00.402Z,19.10
2019-04-16T16:33:30.635Z,19.20
2019-04-16T16:36:00.931Z,19.10
2019-04-16T16:38:31.217Z,18.90
2019-04-16T16:41:01.504Z,18.70
2019-04-16T16:43:31.786Z,18.60
2019-04-16T16:46:18.731Z,18.60
2019-04-16T16:48:50.628Z,18.60
2019-04-16T16:51:23.007Z,18.60
2019-04-16T16:54:00.874Z,18.60
2019-04-16T16:56:49.213Z,18.60
2019-04-16T16:59:23.644Z,18.60
2019-04-16T17:02:08.595Z,18.50
2019-04-16T17:04:38.519Z,18.50
2019-04-16T17:07:09.182Z,18.40
2019-04-16T17:09:39.463Z,18.40
2019-04-16T17:12:09.757Z,18.30
2019-04-16T17:14:40.030Z,18.20
2019-04-16T17:17:14.704Z,18.20
2019-04-16T17:19:42.313Z,18.20
2019-04-16T17:22:14.650Z,18.30
2019-04-16T17:24:44.985Z,18.20
2019-04-16T17:27:15.276Z,18.00
2019-04-16T17:29:46.584Z,18.00
2019-04-16T17:32:17.622Z,18.00
2019-04-16T17:34:48.228Z,17.90
2019-04-16T17:37:21.395Z,17.90
2019-04-16T17:39:54.784Z,17.80
2019-04-16T17:42:26.714Z,17.60
2019-04-16T17:45:14.479Z,17.60
2019-04-16T17:48:05.424Z,17.50
2019-04-16T17:50:39.565Z,17.50
2019-04-16T17:53:15.906Z,17.40
2019-04-16T17:55:47.374Z,17.40
2019-04-16T17:58:19.301Z,17.40
2019-04-16T18:00:51.231Z,17.30
2019-04-16T18:03:37.246Z,17.20
2019-04-16T18:06:17.529Z,17.20
2019-04-16T18:08:49.462Z,17.10
2019-04-16T18:11:27.390Z,17.10
2019-04-16T18:14:08.821Z,17.10
2019-04-16T18:16:54.326Z,17.10
2019-04-16T18:19:39.259Z,16.90
2019-04-16T18:22:15.875Z,16.80
2019-04-16T18:24:53.903Z,16.60
2019-04-16T18:27:29.226Z,16.50
2019-04-16T18:30:08.673Z,16.30
2019-04-16T18:32:58.893Z,16.20
2019-04-16T18:35:33.535Z,16.10
2019-04-16T18:38:22.225Z,16.00
2019-04-16T18:41:11.211Z,16.00
2019-04-16T18:43:59.236Z,15.80
2019-04-16T18:46:31.160Z,15.80
2019-04-16T18:49:03.090Z,15.60
2019-04-16T18:51:34.285Z,15.60
2019-04-16T18:54:05.057Z,15.50
2019-04-16T18:56:35.333Z,15.40
2019-04-16T18:59:05.687Z,15.40
2019-04-16T19:01:37.874Z,15.40
2019-04-16T19:04:08.153Z,15.40
2019-04-16T19:06:38.725Z,15.30
2019-04-16T19:09:09.216Z,15.30
2019-04-16T19:11:39.485Z,15.30
2019-04-16T19:14:12.540Z,15.20
2019-04-16T19:16:41.750Z,15.10
2019-04-16T19:19:12.034Z,15.10
2019-04-16T19:21:42.884Z,15.00
2019-04-16T19:24:13.454Z,15.10
2019-04-16T19:26:43.742Z,15.00
2019-04-16T19:29:14.835Z,15.00
2019-04-16T19:31:46.103Z,15.00
2019-04-16T19:34:16.384Z,14.90
2019-04-16T19:36:46.659Z,14.90
2019-04-16T19:39:17.078Z,14.90
2019-04-16T19:41:47.410Z,14.90
2019-04-16T19:44:17.691Z,14.90
2019-04-16T19:46:52.665Z,14.80
2019-04-16T19:49:20.101Z,14.80
2019-04-16T19:51:50.381Z,14.80
2019-04-16T19:54:20.928Z,14.80
2019-04-16T19:56:52.018Z,14.80
2019-04-16T19:59:22.603Z,14.70
2019-04-16T20:01:55.980Z,14.70
2019-04-16T20:04:24.876Z,14.60
2019-04-16T20:07:00.005Z,14.60
2019-04-16T20:09:27.162Z,14.60
2019-04-16T20:11:57.403Z,14.60
2019-04-16T20:14:27.685Z,14.60
2019-04-16T20:16:57.982Z,14.60
2019-04-16T20:19:28.468Z,14.50
2019-04-16T20:21:59.469Z,14.50
2019-04-16T20:24:29.736Z,14.50
2019-04-16T20:27:04.877Z,14.40
2019-04-16T20:29:32.059Z,14.40
2019-04-16T20:32:02.391Z,14.40
2019-04-16T20:34:32.667Z,14.40
2019-04-16T20:37:02.950Z,14.40
2019-04-16T20:39:33.250Z,14.40
2019-04-16T20:42:03.712Z,14.40
2019-04-16T20:44:34.316Z,14.40
2019-04-16T20:47:07.913Z,14.30
2019-04-16T20:49:36.968Z,14.30
2019-04-16T20:52:07.320Z,14.40
2019-04-16T20:54:44.029Z,14.40
2019-04-16T20:57:11.415Z,14.40
2019-04-16T20:59:41.960Z,14.30
2019-04-16T21:02:12.592Z,14.20
2019-04-16T21:04:44.337Z,14.10
2019-04-16T21:07:15.477Z,14.00
2019-04-16T21:09:45.864Z,13.80
2019-04-16T21:12:16.149Z,13.70
2019-04-16T21:14:46.429Z,13.70
2019-04-16T21:17:17.841Z,13.70
2019-04-16T21:19:48.181Z,13.60
2019-04-16T21:22:19.234Z,13.50
2019-04-16T21:24:49.576Z,13.50
2019-04-16T21:27:19.853Z,13.50
2019-04-16T21:29:50.133Z,13.50
2019-04-16T21:32:24.854Z,13.50
2019-04-16T21:35:06.184Z,13.50
2019-04-16T21:37:55.985Z,13.50
2019-04-16T21:40:26.221Z,13.50
2019-04-16T21:42:56.488Z,13.40
2019-04-16T21:45:26.769Z,13.40
2019-04-16T21:47:57.048Z,13.40
2019-04-16T21:50:27.329Z,13.40
2019-04-16T21:52:57.598Z,13.50
2019-04-16T21:55:27.879Z,13.40
2019-04-16T21:57:58.327Z,13.40
2019-04-16T22:00:40.137Z,13.40
2019-04-16T22:03:15.169Z,13.40
2019-04-16T22:05:48.141Z,13.30
2019-04-16T22:08:17.417Z,13.30
2019-04-16T22:10:47.698Z,13.20
2019-04-16T22:13:19.481Z,13.30
2019-04-16T22:15:50.370Z,13.30
2019-04-16T22:18:20.912Z,13.20
2019-04-16T22:20:51.193Z,13.20
2019-04-16T22:23:21.473Z,13.20
2019-04-16T22:25:51.749Z,13.20
2019-04-16T22:28:22.029Z,13.20
2019-04-16T22:30:52.361Z,13.20
2019-04-16T22:33:22.583Z,13.20
2019-04-16T22:35:54.199Z,13.20
2019-04-16T22:38:25.752Z,13.10
2019-04-16T22:40:58.014Z,13.10
2019-04-16T22:43:30.292Z,13.10
2019-04-16T22:46:02.386Z,13.10
2019-04-16T22:48:32.561Z,13.10
2019-04-16T22:51:02.841Z,13.20
2019-04-16T22:53:33.124Z,13.20
2019-04-16T22:56:03.397Z,13.10
2019-04-16T22:58:49.901Z,13.10
2019-04-16T23:01:22.231Z,13.10
2019-04-16T23:03:53.423Z,13.10
2019-04-16T23:06:24.670Z,13.10
2019-04-16T23:08:55.170Z,13.00
2019-04-16T23:11:25.453Z,13.00
2019-04-16T23:13:55.803Z,13.00
2019-04-16T23:16:26.096Z,13.00
2019-04-16T23:18:56.352Z,13.00
2019-04-16T23:21:26.636Z,13.00
2019-04-16T23:23:57.009Z,13.00
2019-04-16T23:26:32.141Z,13.00
2019-04-16T23:28:59.256Z,13.00
2019-04-16T23:31:29.531Z,13.00
2019-04-16T23:34:04.575Z,13.00
2019-04-16T23:36:31.784Z,13.00
2019-04-16T23:39:04.664Z,13.00
2019-04-16T23:41:34.108Z,13.00
2019-04-16T23:44:15.057Z,13.00
2019-04-16T23:47:02.288Z,12.90
2019-04-16T23:49:36.757Z,12.90
2019-04-16T23:52:20.802Z,12.90
2019-04-16T23:54:55.463Z,12.90
2019-04-16T23:57:43.724Z,12.90
